sensor_id;sensor_type;location;lat;lon;timestamp;pressure;altitude;pressure_sealevel;temperature;humidity
33075;BME280;19433;51.292;6.868;2022-12-18T00:01:48;101606.88;;;-4.55;96.37
33075;BME280;19433;51.292;6.868;2022-12-18T00:04:22;101611.59;;;-4.58;96.79
33075;BME280;19433;51.292;6.868;2022-12-18T00:06:48;101610.22;;;-4.50;96.79
33075;BME280;19433;51.292;6.868;2022-12-18T00:09:14;101600.63;;;-4.73;97.25
33075;BME280;19433;51.292;6.868;2022-12-18T00:11:40;101608.41;;;-4.67;97.50
33075;BME280;19433;51.292;6.868;2022-12-18T00:14:05;101608.69;;;-4.55;96.26
33075;BME280;19433;51.292;6.868;2022-12-18T00:16:31;101622.41;;;-4.43;95.99
33075;BME280;19433;51.292;6.868;2022-12-18T00:19:00;101604.75;;;-4.83;97.19
33075;BME280;19433;51.292;6.868;2022-12-18T00:21:27;101606.41;;;-4.80;98.03
33075;BME280;19433;51.292;6.868;2022-12-18T00:23:53;101597.84;;;-4.54;96.65
33075;BME280;19433;51.292;6.868;2022-12-18T00:26:27;101610.44;;;-4.72;97.43
33075;BME280;19433;51.292;6.868;2022-12-18T00:28:54;101628.06;;;-4.65;97.59
33075;BME280;19433;51.292;6.868;2022-12-18T00:31:23;101609.59;;;-4.89;99.36
33075;BME280;19433;51.292;6.868;2022-12-18T00:33:49;101628.19;;;-4.85;98.85
33075;BME280;19433;51.292;6.868;2022-12-18T00:36:19;101608.41;;;-4.49;97.81
33075;BME280;19433;51.292;6.868;2022-12-18T00:38:46;101615.91;;;-4.56;97.56
33075;BME280;19433;51.292;6.868;2022-12-18T00:41:14;101611.41;;;-4.90;98.26
33075;BME280;19433;51.292;6.868;2022-12-18T00:44:00;101583.25;;;-4.67;96.61
33075;BME280;19433;51.292;6.868;2022-12-18T00:46:25;101590.00;;;-4.58;96.97
33075;BME280;19433;51.292;6.868;2022-12-18T00:48:52;101588.19;;;-4.75;97.62
33075;BME280;19433;51.292;6.868;2022-12-18T00:51:18;101615.53;;;-4.48;96.54
33075;BME280;19433;51.292;6.868;2022-12-18T00:53:44;101576.84;;;-4.65;96.24
33075;BME280;19433;51.292;6.868;2022-12-18T00:56:09;101616.56;;;-4.68;97.30
33075;BME280;19433;51.292;6.868;2022-12-18T00:58:35;101604.75;;;-4.83;96.88
33075;BME280;19433;51.292;6.868;2022-12-18T01:01:01;101623.84;;;-4.53;96.92
33075;BME280;19433;51.292;6.868;2022-12-18T01:03:27;101616.41;;;-4.48;96.08
33075;BME280;19433;51.292;6.868;2022-12-18T01:05:52;101605.63;;;-4.65;95.83
33075;BME280;19433;51.292;6.868;2022-12-18T01:08:18;101604.34;;;-4.58;95.38
33075;BME280;19433;51.292;6.868;2022-12-18T01:10:47;101621.22;;;-4.54;95.31
33075;BME280;19433;51.292;6.868;2022-12-18T01:13:12;101624.78;;;-4.37;94.72
33075;BME280;19433;51.292;6.868;2022-12-18T01:15:38;101629.31;;;-4.54;95.21
33075;BME280;19433;51.292;6.868;2022-12-18T01:18:05;101625.06;;;-4.58;95.62
33075;BME280;19433;51.292;6.868;2022-12-18T01:20:31;101607.69;;;-4.70;95.36
33075;BME280;19433;51.292;6.868;2022-12-18T01:22:57;101610.00;;;-4.63;95.12
33075;BME280;19433;51.292;6.868;2022-12-18T01:25:22;101610.06;;;-4.81;96.86
33075;BME280;19433;51.292;6.868;2022-12-18T01:27:48;101611.09;;;-4.49;95.32
33075;BME280;19433;51.292;6.868;2022-12-18T01:30:13;101603.72;;;-4.63;95.29
33075;BME280;19433;51.292;6.868;2022-12-18T01:32:39;101610.94;;;-4.64;96.21
33075;BME280;19433;51.292;6.868;2022-12-18T01:35:05;101625.22;;;-4.62;96.73
33075;BME280;19433;51.292;6.868;2022-12-18T01:37:31;101617.13;;;-4.62;96.26
33075;BME280;19433;51.292;6.868;2022-12-18T01:39:57;101583.25;;;-4.84;96.82
33075;BME280;19433;51.292;6.868;2022-12-18T01:42:22;101586.59;;;-4.62;96.37
33075;BME280;19433;51.292;6.868;2022-12-18T01:49:54;101583.81;;;-4.61;96.94
33075;BME280;19433;51.292;6.868;2022-12-18T01:52:20;101587.06;;;-4.54;96.41
33075;BME280;19433;51.292;6.868;2022-12-18T01:54:49;101578.97;;;-4.54;95.79
33075;BME280;19433;51.292;6.868;2022-12-18T01:57:16;101598.53;;;-4.33;95.70
33075;BME280;19433;51.292;6.868;2022-12-18T01:59:42;101579.19;;;-4.41;95.82
33075;BME280;19433;51.292;6.868;2022-12-18T02:02:09;101607.91;;;-4.40;96.20
33075;BME280;19433;51.292;6.868;2022-12-18T02:04:35;101636.13;;;-4.13;95.51
33075;BME280;19433;51.292;6.868;2022-12-18T02:07:10;101584.97;;;-4.32;95.90
33075;BME280;19433;51.292;6.868;2022-12-18T02:09:56;101580.38;;;-4.30;95.52
33075;BME280;19433;51.292;6.868;2022-12-18T02:12:27;101596.63;;;-4.31;95.57
33075;BME280;19433;51.292;6.868;2022-12-18T02:15:12;101605.53;;;-4.29;96.01
33075;BME280;19433;51.292;6.868;2022-12-18T02:17:51;101597.38;;;-4.45;95.94
33075;BME280;19433;51.292;6.868;2022-12-18T02:28:33;101619.00;;;-4.29;96.62
33075;BME280;19433;51.292;6.868;2022-12-18T02:31:02;101588.78;;;-4.36;96.42
33075;BME280;19433;51.292;6.868;2022-12-18T02:33:30;101572.50;;;-4.34;95.82
33075;BME280;19433;51.292;6.868;2022-12-18T02:35:57;101570.84;;;-4.37;96.29
33075;BME280;19433;51.292;6.868;2022-12-18T02:38:24;101566.53;;;-4.23;94.94
33075;BME280;19433;51.292;6.868;2022-12-18T02:40:51;101571.97;;;-4.08;94.71
33075;BME280;19433;51.292;6.868;2022-12-18T02:43:18;101571.41;;;-4.30;95.55
33075;BME280;19433;51.292;6.868;2022-12-18T02:45:57;101577.44;;;-4.09;95.43
33075;BME280;19433;51.292;6.868;2022-12-18T02:48:28;101590.72;;;-4.22;95.97
33075;BME280;19433;51.292;6.868;2022-12-18T02:51:26;101614.22;;;-3.91;95.19
33075;BME280;19433;51.292;6.868;2022-12-18T02:54:05;101569.72;;;-4.00;93.74
33075;BME280;19433;51.292;6.868;2022-12-18T02:56:38;101580.13;;;-4.09;95.51
33075;BME280;19433;51.292;6.868;2022-12-18T02:59:13;101605.84;;;-4.02;94.92
33075;BME280;19433;51.292;6.868;2022-12-18T03:02:16;101598.38;;;-3.81;94.85
33075;BME280;19433;51.292;6.868;2022-12-18T03:04:53;101591.69;;;-4.23;95.55
33075;BME280;19433;51.292;6.868;2022-12-18T03:07:28;101590.59;;;-4.03;95.03
33075;BME280;19433;51.292;6.868;2022-12-18T03:09:59;101598.06;;;-4.08;94.85
33075;BME280;19433;51.292;6.868;2022-12-18T03:12:35;101582.44;;;-4.02;94.82
33075;BME280;19433;51.292;6.868;2022-12-18T03:15:13;101596.03;;;-3.87;94.87
33075;BME280;19433;51.292;6.868;2022-12-18T03:17:44;101587.06;;;-3.88;94.46
33075;BME280;19433;51.292;6.868;2022-12-18T03:20:14;101575.53;;;-4.07;95.02
33075;BME280;19433;51.292;6.868;2022-12-18T03:22:44;101591.13;;;-3.97;94.77
33075;BME280;19433;51.292;6.868;2022-12-18T03:25:13;101564.22;;;-4.14;94.74
33075;BME280;19433;51.292;6.868;2022-12-18T03:27:43;101566.94;;;-3.98;94.33
33075;BME280;19433;51.292;6.868;2022-12-18T03:30:12;101558.72;;;-4.12;94.81
33075;BME280;19433;51.292;6.868;2022-12-18T03:35:27;101550.44;;;-4.25;94.28
33075;BME280;19433;51.292;6.868;2022-12-18T03:37:54;101573.16;;;-4.29;95.96
33075;BME280;19433;51.292;6.868;2022-12-18T03:40:23;101561.88;;;-4.37;95.54
33075;BME280;19433;51.292;6.868;2022-12-18T03:43:01;101581.69;;;-4.21;95.96
33075;BME280;19433;51.292;6.868;2022-12-18T03:45:37;101563.88;;;-4.58;96.63
33075;BME280;19433;51.292;6.868;2022-12-18T03:48:20;101588.09;;;-4.23;95.81
33075;BME280;19433;51.292;6.868;2022-12-18T03:50:59;101540.94;;;-4.32;95.50
33075;BME280;19433;51.292;6.868;2022-12-18T03:56:01;101587.78;;;-4.17;95.73
33075;BME280;19433;51.292;6.868;2022-12-18T03:58:29;101526.50;;;-4.31;95.05
33075;BME280;19433;51.292;6.868;2022-12-18T04:01:00;101546.84;;;-4.26;95.14
33075;BME280;19433;51.292;6.868;2022-12-18T04:03:28;101570.22;;;-4.09;94.87
33075;BME280;19433;51.292;6.868;2022-12-18T04:05:58;101563.59;;;-4.19;95.14
33075;BME280;19433;51.292;6.868;2022-12-18T04:08:26;101545.81;;;-4.56;96.15
33075;BME280;19433;51.292;6.868;2022-12-18T04:10:53;101523.72;;;-4.30;95.69
33075;BME280;19433;51.292;6.868;2022-12-18T04:13:27;101558.91;;;-4.15;95.33
33075;BME280;19433;51.292;6.868;2022-12-18T04:15:53;101534.78;;;-4.18;95.30
33075;BME280;19433;51.292;6.868;2022-12-18T04:18:19;101564.22;;;-4.14;95.73
33075;BME280;19433;51.292;6.868;2022-12-18T04:20:45;101564.13;;;-3.97;94.87
33075;BME280;19433;51.292;6.868;2022-12-18T04:23:11;101536.63;;;-4.19;94.88
33075;BME280;19433;51.292;6.868;2022-12-18T04:25:37;101548.63;;;-4.09;94.73
33075;BME280;19433;51.292;6.868;2022-12-18T04:28:03;101551.94;;;-4.19;95.13
33075;BME280;19433;51.292;6.868;2022-12-18T04:30:28;101558.13;;;-4.02;95.07
33075;BME280;19433;51.292;6.868;2022-12-18T04:32:54;101533.47;;;-4.11;95.21
33075;BME280;19433;51.292;6.868;2022-12-18T04:35:20;101532.56;;;-4.28;95.31
33075;BME280;19433;51.292;6.868;2022-12-18T04:37:45;101529.78;;;-4.26;95.18
33075;BME280;19433;51.292;6.868;2022-12-18T04:40:11;101513.59;;;-4.26;94.84
33075;BME280;19433;51.292;6.868;2022-12-18T04:42:39;101539.06;;;-4.14;95.47
33075;BME280;19433;51.292;6.868;2022-12-18T04:45:05;101529.44;;;-4.36;95.53
33075;BME280;19433;51.292;6.868;2022-12-18T04:47:30;101544.06;;;-4.24;96.32
33075;BME280;19433;51.292;6.868;2022-12-18T04:49:56;101527.63;;;-4.35;96.02
33075;BME280;19433;51.292;6.868;2022-12-18T04:52:22;101520.41;;;-4.19;95.33
33075;BME280;19433;51.292;6.868;2022-12-18T04:54:48;101541.69;;;-4.13;95.90
33075;BME280;19433;51.292;6.868;2022-12-18T04:57:13;101545.22;;;-4.28;96.08
33075;BME280;19433;51.292;6.868;2022-12-18T04:59:39;101527.25;;;-4.45;96.03
33075;BME280;19433;51.292;6.868;2022-12-18T05:02:05;101502.63;;;-4.39;95.94
33075;BME280;19433;51.292;6.868;2022-12-18T05:04:31;101516.91;;;-4.37;96.35
33075;BME280;19433;51.292;6.868;2022-12-18T05:06:56;101516.13;;;-4.39;95.91
33075;BME280;19433;51.292;6.868;2022-12-18T05:09:23;101506.75;;;-4.32;95.20
33075;BME280;19433;51.292;6.868;2022-12-18T05:11:48;101539.41;;;-4.05;94.76
33075;BME280;19433;51.292;6.868;2022-12-18T05:14:14;101497.88;;;-4.34;95.26
33075;BME280;19433;51.292;6.868;2022-12-18T05:16:40;101511.72;;;-4.08;94.04
33075;BME280;19433;51.292;6.868;2022-12-18T05:19:06;101531.16;;;-4.02;94.80
33075;BME280;19433;51.292;6.868;2022-12-18T05:21:32;101534.56;;;-3.98;94.48
33075;BME280;19433;51.292;6.868;2022-12-18T05:23:58;101498.22;;;-4.24;95.02
33075;BME280;19433;51.292;6.868;2022-12-18T05:26:23;101520.41;;;-4.19;94.70
33075;BME280;19433;51.292;6.868;2022-12-18T05:28:49;101511.28;;;-4.32;95.23
33075;BME280;19433;51.292;6.868;2022-12-18T05:31:15;101520.84;;;-4.11;94.72
33075;BME280;19433;51.292;6.868;2022-12-18T05:33:40;101512.34;;;-4.19;94.78
33075;BME280;19433;51.292;6.868;2022-12-18T05:36:08;101507.28;;;-4.09;94.09
33075;BME280;19433;51.292;6.868;2022-12-18T05:38:36;101508.16;;;-4.09;93.66
33075;BME280;19433;51.292;6.868;2022-12-18T05:41:03;101531.16;;;-4.02;93.72
33075;BME280;19433;51.292;6.868;2022-12-18T05:43:29;101513.63;;;-4.10;93.68
33075;BME280;19433;51.292;6.868;2022-12-18T05:45:55;101507.13;;;-4.06;93.07
33075;BME280;19433;51.292;6.868;2022-12-18T05:48:22;101532.44;;;-4.09;93.22
33075;BME280;19433;51.292;6.868;2022-12-18T05:50:49;101519.13;;;-3.96;92.58
33075;BME280;19433;51.292;6.868;2022-12-18T05:53:17;101539.19;;;-3.84;92.06
33075;BME280;19433;51.292;6.868;2022-12-18T05:55:45;101568.34;;;-3.91;92.79
33075;BME280;19433;51.292;6.868;2022-12-18T05:58:12;101528.72;;;-3.91;92.18
33075;BME280;19433;51.292;6.868;2022-12-18T06:00:39;101543.16;;;-4.07;92.19
33075;BME280;19433;51.292;6.868;2022-12-18T06:03:07;101574.41;;;-4.03;92.86
33075;BME280;19433;51.292;6.868;2022-12-18T06:05:37;101560.72;;;-4.16;92.95
33075;BME280;19433;51.292;6.868;2022-12-18T06:08:03;101576.25;;;-3.88;92.10
33075;BME280;19433;51.292;6.868;2022-12-18T06:10:29;101564.69;;;-4.23;92.58
33075;BME280;19433;51.292;6.868;2022-12-18T06:12:54;101588.44;;;-3.97;91.71
33075;BME280;19433;51.292;6.868;2022-12-18T06:15:20;101592.94;;;-3.97;92.20
33075;BME280;19433;51.292;6.868;2022-12-18T06:17:46;101602.34;;;-4.04;92.01
33075;BME280;19433;51.292;6.868;2022-12-18T06:20:11;101592.34;;;-4.02;92.08
33075;BME280;19433;51.292;6.868;2022-12-18T06:22:37;101605.84;;;-4.02;92.58
33075;BME280;19433;51.292;6.868;2022-12-18T06:25:03;101593.97;;;-4.15;92.70
33075;BME280;19433;51.292;6.868;2022-12-18T06:27:28;101579.59;;;-4.49;93.64
33075;BME280;19433;51.292;6.868;2022-12-18T06:29:54;101575.88;;;-4.46;93.97
33075;BME280;19433;51.292;6.868;2022-12-18T06:32:19;101585.00;;;-4.49;94.44
33075;BME280;19433;51.292;6.868;2022-12-18T06:34:45;101605.09;;;-4.21;93.93
33075;BME280;19433;51.292;6.868;2022-12-18T06:37:11;101583.31;;;-4.34;93.94
33075;BME280;19433;51.292;6.868;2022-12-18T06:39:36;101578.69;;;-4.32;93.81
33075;BME280;19433;51.292;6.868;2022-12-18T06:42:03;101576.28;;;-4.21;93.37
33075;BME280;19433;51.292;6.868;2022-12-18T06:44:28;101542.31;;;-4.58;93.80
33075;BME280;19433;51.292;6.868;2022-12-18T06:46:54;101566.66;;;-4.09;92.06
33075;BME280;19433;51.292;6.868;2022-12-18T06:49:20;101531.72;;;-4.28;92.54
33075;BME280;19433;51.292;6.868;2022-12-18T06:51:46;101549.06;;;-4.49;93.72
33075;BME280;19433;51.292;6.868;2022-12-18T06:54:12;101555.50;;;-4.19;92.85
33075;BME280;19433;51.292;6.868;2022-12-18T06:56:38;101530.72;;;-4.43;93.86
33075;BME280;19433;51.292;6.868;2022-12-18T06:59:04;101520.13;;;-4.46;93.09
33075;BME280;19433;51.292;6.868;2022-12-18T07:04:55;101527.44;;;-4.32;93.09
33075;BME280;19433;51.292;6.868;2022-12-18T07:07:20;101530.94;;;-4.30;93.30
33075;BME280;19433;51.292;6.868;2022-12-18T07:09:45;101526.38;;;-4.45;93.30
33075;BME280;19433;51.292;6.868;2022-12-18T08:41:40;101449.72;;;-3.33;85.91
33075;BME280;19433;51.292;6.868;2022-12-18T08:44:07;101453.63;;;-3.23;86.12
33075;BME280;19433;51.292;6.868;2022-12-18T08:47:10;101457.78;;;-3.03;84.88
33075;BME280;19433;51.292;6.868;2022-12-18T08:52:58;101481.44;;;-2.62;82.61
33075;BME280;19433;51.292;6.868;2022-12-18T08:58:54;101466.84;;;-2.31;80.89
33075;BME280;19433;51.292;6.868;2022-12-18T09:04:41;101472.88;;;-2.14;80.13
33075;BME280;19433;51.292;6.868;2022-12-18T09:10:29;101463.09;;;-1.88;77.73
33075;BME280;19433;51.292;6.868;2022-12-18T09:21:39;101428.31;;;-1.81;76.10
33075;BME280;19433;51.292;6.868;2022-12-18T09:24:05;101457.38;;;-1.56;76.30
33075;BME280;19433;51.292;6.868;2022-12-18T09:37:08;101453.88;;;-1.19;74.75
33075;BME280;19433;51.292;6.868;2022-12-18T09:43:22;101467.50;;;-0.43;70.29
33075;BME280;19433;51.292;6.868;2022-12-18T09:49:44;101455.19;;;0.26;65.80
33075;BME280;19433;51.292;6.868;2022-12-18T09:55:41;101429.00;;;0.25;66.47
33075;BME280;19433;51.292;6.868;2022-12-18T10:01:37;101413.44;;;0.04;66.05
33075;BME280;19433;51.292;6.868;2022-12-18T10:24:32;101419.19;;;0.59;64.95
33075;BME280;19433;51.292;6.868;2022-12-18T10:26:52;101410.66;;;0.64;64.54
33075;BME280;19433;51.292;6.868;2022-12-18T10:29:18;101392.72;;;0.61;64.68
33075;BME280;19433;51.292;6.868;2022-12-18T10:31:43;101393.56;;;0.62;64.40
33075;BME280;19433;51.292;6.868;2022-12-18T10:34:26;101377.03;;;0.65;65.07
33075;BME280;19433;51.292;6.868;2022-12-18T10:40:53;101381.59;;;0.99;63.60
33075;BME280;19433;51.292;6.868;2022-12-18T10:43:28;101397.44;;;1.05;63.76
33075;BME280;19433;51.292;6.868;2022-12-18T10:46:28;101396.16;;;0.98;63.07
33075;BME280;19433;51.292;6.868;2022-12-18T10:48:55;101391.13;;;1.05;63.93
33075;BME280;19433;51.292;6.868;2022-12-18T10:51:27;101383.19;;;1.02;63.06
33075;BME280;19433;51.292;6.868;2022-12-18T10:54:06;101375.16;;;1.12;62.80
33075;BME280;19433;51.292;6.868;2022-12-18T11:00:27;101366.53;;;1.51;62.41
33075;BME280;19433;51.292;6.868;2022-12-18T11:03:01;101360.97;;;1.30;62.98
33075;BME280;19433;51.292;6.868;2022-12-18T11:05:31;101350.81;;;1.21;62.68
33075;BME280;19433;51.292;6.868;2022-12-18T11:07:58;101334.38;;;1.34;62.98
33075;BME280;19433;51.292;6.868;2022-12-18T11:10:55;101347.97;;;1.34;63.01
33075;BME280;19433;51.292;6.868;2022-12-18T11:13:25;101358.25;;;1.53;62.85
33075;BME280;19433;51.292;6.868;2022-12-18T11:16:17;101351.69;;;1.33;62.50
33075;BME280;19433;51.292;6.868;2022-12-18T11:21:53;101357.72;;;1.14;63.48
33075;BME280;19433;51.292;6.868;2022-12-18T11:24:33;101365.16;;;1.23;63.48
33075;BME280;19433;51.292;6.868;2022-12-18T11:27:15;101344.13;;;1.14;63.79
33075;BME280;19433;51.292;6.868;2022-12-18T11:29:41;101349.94;;;1.21;63.46
33075;BME280;19433;51.292;6.868;2022-12-18T11:32:24;101323.94;;;1.39;63.47
33075;BME280;19433;51.292;6.868;2022-12-18T11:34:57;101321.97;;;1.30;63.38
33075;BME280;19433;51.292;6.868;2022-12-18T11:37:24;101312.72;;;1.21;63.18
33075;BME280;19433;51.292;6.868;2022-12-18T11:40:01;101309.13;;;1.21;64.08
33075;BME280;19433;51.292;6.868;2022-12-18T11:42:35;101299.22;;;1.31;62.77
33075;BME280;19433;51.292;6.868;2022-12-18T11:45:29;101306.53;;;1.19;63.21
33075;BME280;19433;51.292;6.868;2022-12-18T11:48:01;101316.91;;;1.14;63.81
33075;BME280;19433;51.292;6.868;2022-12-18T11:53:01;101303.31;;;1.14;64.81
33075;BME280;19433;51.292;6.868;2022-12-18T11:55:34;101303.53;;;1.22;65.48
33075;BME280;19433;51.292;6.868;2022-12-18T11:58:13;101304.19;;;1.03;63.69
33075;BME280;19433;51.292;6.868;2022-12-18T12:00:52;101301.06;;;0.86;64.40
33075;BME280;19433;51.292;6.868;2022-12-18T12:03:46;101300.81;;;0.89;64.72
33075;BME280;19433;51.292;6.868;2022-12-18T12:09:07;101288.69;;;0.82;65.93
33075;BME280;19433;51.292;6.868;2022-12-18T12:11:53;101291.16;;;0.85;65.68
33075;BME280;19433;51.292;6.868;2022-12-18T12:14:43;101296.06;;;0.57;66.41
33075;BME280;19433;51.292;6.868;2022-12-18T12:17:20;101288.16;;;0.65;67.72
33075;BME280;19433;51.292;6.868;2022-12-18T12:19:56;101294.75;;;0.74;66.43
33075;BME280;19433;51.292;6.868;2022-12-18T12:25:10;101293.38;;;0.68;66.66
33075;BME280;19433;51.292;6.868;2022-12-18T12:27:46;101275.03;;;0.48;67.31
33075;BME280;19433;51.292;6.868;2022-12-18T12:33:23;101267.97;;;0.34;69.19
33075;BME280;19433;51.292;6.868;2022-12-18T12:36:08;101265.63;;;0.30;68.67
33075;BME280;19433;51.292;6.868;2022-12-18T12:39:05;101268.50;;;0.16;69.75
33075;BME280;19433;51.292;6.868;2022-12-18T12:41:33;101267.28;;;0.20;69.22
33075;BME280;19433;51.292;6.868;2022-12-18T12:44:23;101270.19;;;0.29;68.94
33075;BME280;19433;51.292;6.868;2022-12-18T12:46:50;101249.22;;;0.08;68.96
33075;BME280;19433;51.292;6.868;2022-12-18T12:49:20;101257.06;;;0.23;69.57
33075;BME280;19433;51.292;6.868;2022-12-18T12:51:56;101264.19;;;0.13;69.09
33075;BME280;19433;51.292;6.868;2022-12-18T12:54:24;101262.41;;;0.01;69.53
33075;BME280;19433;51.292;6.868;2022-12-18T12:57:00;101257.78;;;0.14;70.16
33075;BME280;19433;51.292;6.868;2022-12-18T12:59:41;101289.19;;;-0.06;70.54
33075;BME280;19433;51.292;6.868;2022-12-18T13:51:05;101171.25;;;-0.49;70.63
33075;BME280;19433;51.292;6.868;2022-12-18T14:04:18;101161.56;;;-0.64;71.40
33075;BME280;19433;51.292;6.868;2022-12-18T14:06:45;101157.69;;;-0.73;71.28
33075;BME280;19433;51.292;6.868;2022-12-18T14:09:14;101146.59;;;-0.70;71.47
33075;BME280;19433;51.292;6.868;2022-12-18T14:14:19;101152.56;;;-0.65;71.15
33075;BME280;19433;51.292;6.868;2022-12-18T14:19:20;101147.19;;;-0.78;71.98
33075;BME280;19433;51.292;6.868;2022-12-18T14:21:47;101137.44;;;-0.80;72.27
33075;BME280;19433;51.292;6.868;2022-12-18T14:24:20;101154.56;;;-0.56;71.75
33075;BME280;19433;51.292;6.868;2022-12-18T14:26:48;101131.66;;;-0.76;71.14
33075;BME280;19433;51.292;6.868;2022-12-18T14:29:28;101137.72;;;-0.72;71.31
33075;BME280;19433;51.292;6.868;2022-12-18T14:32:20;101154.28;;;-0.64;71.08
33075;BME280;19433;51.292;6.868;2022-12-18T14:34:47;101158.38;;;-0.58;70.79
33075;BME280;19433;51.292;6.868;2022-12-18T14:37:14;101123.00;;;-0.81;71.21
33075;BME280;19433;51.292;6.868;2022-12-18T14:39:40;101156.31;;;-0.79;71.62
33075;BME280;19433;51.292;6.868;2022-12-18T14:44:52;101104.75;;;-1.02;71.87
33075;BME280;19433;51.292;6.868;2022-12-18T14:55:03;101088.28;;;-0.99;71.25
33075;BME280;19433;51.292;6.868;2022-12-18T14:57:34;101085.78;;;-1.02;72.54
33075;BME280;19433;51.292;6.868;2022-12-18T15:00:11;101105.81;;;-0.92;72.19
33075;BME280;19433;51.292;6.868;2022-12-18T15:02:40;101084.81;;;-1.01;72.62
33075;BME280;19433;51.292;6.868;2022-12-18T15:10:27;101101.41;;;-1.06;72.82
33075;BME280;19433;51.292;6.868;2022-12-18T15:18:11;101084.56;;;-0.98;72.16
33075;BME280;19433;51.292;6.868;2022-12-18T15:20:52;101079.44;;;-1.14;72.58
33075;BME280;19433;51.292;6.868;2022-12-18T15:23:33;101107.53;;;-0.91;72.10
33075;BME280;19433;51.292;6.868;2022-12-18T15:26:02;101092.19;;;-1.03;72.40
33075;BME280;19433;51.292;6.868;2022-12-18T15:28:35;101082.84;;;-0.99;72.81
33075;BME280;19433;51.292;6.868;2022-12-18T15:33:39;101097.72;;;-1.05;73.32
33075;BME280;19433;51.292;6.868;2022-12-18T15:36:09;101072.59;;;-1.07;72.87
33075;BME280;19433;51.292;6.868;2022-12-18T15:41:15;101082.56;;;-1.08;73.87
33075;BME280;19433;51.292;6.868;2022-12-18T15:43:41;101084.69;;;-1.24;74.05
33075;BME280;19433;51.292;6.868;2022-12-18T15:46:11;101061.19;;;-1.36;75.29
33075;BME280;19433;51.292;6.868;2022-12-18T15:48:43;101074.75;;;-1.36;75.50
33075;BME280;19433;51.292;6.868;2022-12-18T15:56:19;101097.56;;;-1.15;75.05
33075;BME280;19433;51.292;6.868;2022-12-18T15:59:15;101070.19;;;-1.35;75.32
33075;BME280;19433;51.292;6.868;2022-12-18T16:04:18;101072.97;;;-1.24;75.20
33075;BME280;19433;51.292;6.868;2022-12-18T16:06:46;101067.09;;;-1.42;76.28
33075;BME280;19433;51.292;6.868;2022-12-18T16:27:18;101102.88;;;-1.62;79.33
33075;BME280;19433;51.292;6.868;2022-12-18T20:15:13;101075.50;;;-1.70;87.15
33075;BME280;19433;51.292;6.868;2022-12-18T20:17:39;101075.16;;;-1.53;87.66
33075;BME280;19433;51.292;6.868;2022-12-18T20:20:05;101070.38;;;-1.62;87.31
33075;BME280;19433;51.292;6.868;2022-12-18T20:22:31;101059.00;;;-1.67;88.55
33075;BME280;19433;51.292;6.868;2022-12-18T20:24:57;101062.38;;;-1.64;88.37
33075;BME280;19433;51.292;6.868;2022-12-18T20:27:23;101071.69;;;-1.55;87.18
33075;BME280;19433;51.292;6.868;2022-12-18T20:29:48;101041.56;;;-1.63;88.46
33075;BME280;19433;51.292;6.868;2022-12-18T20:47:45;101076.00;;;-1.65;93.76
33075;BME280;19433;51.292;6.868;2022-12-18T20:52:46;101077.44;;;-1.72;93.75
33075;BME280;19433;51.292;6.868;2022-12-18T20:55:13;101056.56;;;-1.96;95.15
33075;BME280;19433;51.292;6.868;2022-12-18T21:41:36;101064.19;;;-1.64;95.66
33075;BME280;19433;51.292;6.868;2022-12-18T22:00:38;101030.44;;;-1.48;98.12
33075;BME280;19433;51.292;6.868;2022-12-18T22:03:03;101030.06;;;-1.54;100.00
33075;BME280;19433;51.292;6.868;2022-12-18T22:10:40;101043.34;;;-1.38;100.00
33075;BME280;19433;51.292;6.868;2022-12-18T22:23:27;101016.69;;;-1.45;100.00
33075;BME280;19433;51.292;6.868;2022-12-18T22:25:52;100982.38;;;-1.57;100.00
33075;BME280;19433;51.292;6.868;2022-12-18T22:28:18;101014.88;;;-1.33;100.00
33075;BME280;19433;51.292;6.868;2022-12-18T22:38:47;100955.78;;;-1.52;100.00
33075;BME280;19433;51.292;6.868;2022-12-18T22:41:12;100960.66;;;-1.44;100.00
33075;BME280;19433;51.292;6.868;2022-12-18T22:43:38;100951.88;;;-1.48;100.00
33075;BME280;19433;51.292;6.868;2022-12-18T22:46:03;100947.75;;;-1.40;100.00
33075;BME280;19433;51.292;6.868;2022-12-18T22:48:29;100949.81;;;-1.44;100.00
33075;BME280;19433;51.292;6.868;2022-12-18T22:50:54;100934.53;;;-1.45;100.00
33075;BME280;19433;51.292;6.868;2022-12-18T22:53:19;100955.88;;;-1.40;100.00
33075;BME280;19433;51.292;6.868;2022-12-18T22:55:45;100968.84;;;-1.22;100.00
33075;BME280;19433;51.292;6.868;2022-12-18T22:58:10;100956.78;;;-1.29;100.00
33075;BME280;19433;51.292;6.868;2022-12-18T23:00:36;100968.50;;;-1.17;100.00
33075;BME280;19433;51.292;6.868;2022-12-18T23:03:01;100936.59;;;-1.25;100.00
33075;BME280;19433;51.292;6.868;2022-12-18T23:05:28;100925.75;;;-1.25;100.00
33075;BME280;19433;51.292;6.868;2022-12-18T23:07:54;100941.41;;;-1.17;100.00
33075;BME280;19433;51.292;6.868;2022-12-18T23:10:19;100924.38;;;-1.30;100.00
33075;BME280;19433;51.292;6.868;2022-12-18T23:12:45;100917.97;;;-1.29;100.00
33075;BME280;19433;51.292;6.868;2022-12-18T23:15:10;100927.97;;;-1.19;100.00
33075;BME280;19433;51.292;6.868;2022-12-18T23:17:36;100932.69;;;-1.10;100.00
33075;BME280;19433;51.292;6.868;2022-12-18T23:20:02;100920.34;;;-1.14;100.00
33075;BME280;19433;51.292;6.868;2022-12-18T23:22:28;100933.03;;;-1.14;100.00
33075;BME280;19433;51.292;6.868;2022-12-18T23:25:03;100928.25;;;-1.11;100.00
33075;BME280;19433;51.292;6.868;2022-12-18T23:27:29;100895.31;;;-1.17;100.00
33075;BME280;19433;51.292;6.868;2022-12-18T23:29:55;100917.03;;;-1.06;100.00
33075;BME280;19433;51.292;6.868;2022-12-18T23:32:20;100894.63;;;-1.08;100.00
33075;BME280;19433;51.292;6.868;2022-12-18T23:35:02;100887.94;;;-1.15;100.00
33075;BME280;19433;51.292;6.868;2022-12-18T23:41:14;100893.50;;;-1.06;100.00
33075;BME280;19433;51.292;6.868;2022-12-18T23:47:06;100889.97;;;-0.95;100.00
33075;BME280;19433;51.292;6.868;2022-12-18T23:49:51;100866.53;;;-1.07;100.00
